Argusville, North Dakota
Current Conditions -  °F | °C
As of 3:53 AM on Sunday 25 Jan 2015 (Local Time) from KFAR Reporting Station
Broken Clouds Broken Clouds  
Wind Chill: 10°   Ceiling: 7000
Heat Index: 22°   Visibility: 10mi
Dew Point: 16°   Wind: 12mph
Humidity: 78%   Direction: 360°N
Pressure: 29.92"   Gusts: NA
Location:  47.05°N, 96.93°W
Report Text: KFAR 250953Z 36010KT 10SM BKN070 M06/M09 A2992 RMK AO2 SLP147 T10561089
Loading
Personal Weather Stations






























Interactive Weather Map New forecast layout! Learn more

10-Day Weather Forecast

Advertisements
Track Severe Weather on mobile